createdAt,value
2023-02-06T00:00:12.358Z,-4.55
2023-02-06T00:02:50.039Z,-4.64
2023-02-06T00:05:28.081Z,-4.74
2023-02-06T00:08:07.521Z,-4.84
2023-02-06T00:10:46.076Z,-4.88
2023-02-06T00:13:21.507Z,-4.87
2023-02-06T00:15:59.869Z,-4.84
2023-02-06T00:18:37.599Z,-4.83
2023-02-06T00:21:15.582Z,-4.72
2023-02-06T00:23:53.968Z,-4.63
2023-02-06T00:26:33.338Z,-4.51
2023-02-06T00:29:13.329Z,-4.46
2023-02-06T00:31:51.346Z,-4.50
2023-02-06T00:34:29.217Z,-4.56
2023-02-06T00:37:07.771Z,-4.59
2023-02-06T00:39:54.376Z,-4.55
2023-02-06T00:42:32.756Z,-4.63
2023-02-06T00:45:11.697Z,-4.65
2023-02-06T00:47:49.747Z,-4.65
2023-02-06T00:50:20.372Z,-4.66
2023-02-06T00:52:54.635Z,-4.63
2023-02-06T00:55:33.641Z,-4.59
2023-02-06T00:58:13.450Z,-4.54
2023-02-06T01:00:51.329Z,-4.45
2023-02-06T01:03:30.118Z,-4.42
2023-02-06T01:06:09.929Z,-4.46
2023-02-06T01:08:48.014Z,-4.42
2023-02-06T01:11:27.822Z,-4.37
2023-02-06T01:15:28.637Z,-4.32
2023-02-06T01:18:06.932Z,-4.38
2023-02-06T01:20:44.901Z,-4.45
2023-02-06T01:23:15.724Z,-4.55
2023-02-06T01:25:54.565Z,-4.49
2023-02-06T01:28:25.685Z,-4.43
2023-02-06T01:30:57.108Z,-4.40
2023-02-06T01:33:35.573Z,-4.39
2023-02-06T01:36:13.711Z,-4.34
2023-02-06T01:38:52.055Z,-4.36
2023-02-06T01:41:29.904Z,-4.44
2023-02-06T01:44:23.272Z,-4.48
2023-02-06T01:46:59.060Z,-4.58
2023-02-06T01:49:39.934Z,-4.65
2023-02-06T01:52:31.981Z,-4.69
2023-02-06T01:55:10.820Z,-4.76
2023-02-06T01:57:49.387Z,-4.72
2023-02-06T02:00:21.083Z,-4.65
2023-02-06T02:02:57.009Z,-4.56
2023-02-06T02:05:36.287Z,-4.51
2023-02-06T02:08:27.369Z,-4.48
2023-02-06T02:11:02.762Z,-4.43
2023-02-06T02:13:38.882Z,-4.47
2023-02-06T02:16:45.038Z,-4.57
2023-02-06T02:19:42.617Z,-4.70
2023-02-06T02:22:57.990Z,-4.75
2023-02-06T02:26:17.096Z,-4.68
2023-02-06T02:29:34.594Z,-4.62
2023-02-06T02:32:40.758Z,-4.56
2023-02-06T02:35:53.766Z,-4.57
2023-02-06T02:38:46.016Z,-4.63
2023-02-06T02:41:35.201Z,-4.70
2023-02-06T02:44:23.336Z,-4.81
2023-02-06T02:46:59.731Z,-4.89
2023-02-06T02:49:33.901Z,-4.94
2023-02-06T02:52:13.103Z,-4.98
2023-02-06T02:54:50.556Z,-4.92
2023-02-06T02:57:31.518Z,-4.78
2023-02-06T03:00:10.433Z,-4.71
2023-02-06T03:02:50.903Z,-4.72
2023-02-06T03:05:29.834Z,-4.77
2023-02-06T03:08:46.520Z,-4.68
2023-02-06T03:11:26.172Z,-4.64
2023-02-06T03:14:16.697Z,-4.61
2023-02-06T03:17:00.254Z,-4.62
2023-02-06T03:19:42.412Z,-4.63
2023-02-06T03:22:18.457Z,-4.71
2023-02-06T03:24:56.524Z,-4.76
2023-02-06T03:27:35.996Z,-4.80
2023-02-06T03:30:19.057Z,-4.83
2023-02-06T03:33:03.466Z,-4.87
2023-02-06T03:35:39.314Z,-4.85
2023-02-06T03:38:16.930Z,-4.79
2023-02-06T03:40:57.262Z,-4.73
2023-02-06T03:43:36.166Z,-4.77
2023-02-06T03:46:17.092Z,-4.86
2023-02-06T03:48:57.545Z,-4.95
2023-02-06T03:51:48.752Z,-5.00
2023-02-06T03:54:24.333Z,-5.03
2023-02-06T03:57:02.237Z,-5.06
2023-02-06T03:59:37.953Z,-5.08
2023-02-06T04:02:16.935Z,-5.11
2023-02-06T04:04:55.111Z,-5.19
2023-02-06T04:07:36.377Z,-5.17
2023-02-06T04:10:15.119Z,-5.10
2023-02-06T04:12:53.550Z,-5.06
2023-02-06T04:15:24.315Z,-5.06
2023-02-06T04:18:00.505Z,-5.03
2023-02-06T04:20:41.350Z,-5.06
2023-02-06T04:23:19.303Z,-5.03
2023-02-06T04:25:57.448Z,-5.00
2023-02-06T04:28:35.737Z,-5.07
2023-02-06T04:31:06.130Z,-5.11
2023-02-06T04:33:38.375Z,-5.15
2023-02-06T04:36:17.233Z,-5.11
2023-02-06T04:38:55.259Z,-5.09
2023-02-06T04:41:26.561Z,-5.05
2023-02-06T04:44:05.122Z,-5.01
2023-02-06T04:46:41.146Z,-4.99
2023-02-06T04:49:19.237Z,-4.95
2023-02-06T04:51:56.965Z,-4.96
2023-02-06T04:54:35.688Z,-4.96
2023-02-06T04:57:06.282Z,-4.97
2023-02-06T04:59:40.493Z,-5.01
2023-02-06T05:02:19.578Z,-5.09
2023-02-06T05:04:57.408Z,-5.15
2023-02-06T05:07:35.264Z,-5.22
2023-02-06T05:10:15.129Z,-5.25
2023-02-06T05:12:52.779Z,-5.24
2023-02-06T05:15:30.175Z,-5.18
2023-02-06T05:18:08.825Z,-5.17
2023-02-06T05:20:46.532Z,-5.20
2023-02-06T05:23:25.144Z,-5.16
2023-02-06T05:26:03.421Z,-5.16
2023-02-06T05:28:40.630Z,-5.19
2023-02-06T05:31:11.411Z,-5.23
2023-02-06T05:35:39.615Z,-5.29
2023-02-06T05:38:17.913Z,-5.35
2023-02-06T05:40:57.024Z,-5.39
2023-02-06T05:47:01.042Z,-5.35
2023-02-06T05:49:40.229Z,-5.32
2023-02-06T05:52:17.844Z,-5.33
2023-02-06T05:54:55.330Z,-5.28
2023-02-06T05:57:32.454Z,-5.28
2023-02-06T06:00:11.532Z,-5.26
2023-02-06T06:02:42.884Z,-5.19
2023-02-06T06:05:21.779Z,-5.17
2023-02-06T06:11:35.619Z,-5.17
2023-02-06T06:16:58.765Z,-5.33
2023-02-06T06:19:34.739Z,-5.29
2023-02-06T06:22:11.919Z,-5.21
2023-02-06T06:26:19.616Z,-5.09
2023-02-06T06:28:58.223Z,-5.17
2023-02-06T06:31:35.639Z,-5.20
2023-02-06T06:34:13.567Z,-5.19
2023-02-06T06:36:52.183Z,-5.23
2023-02-06T06:39:30.445Z,-5.29
2023-02-06T06:42:09.343Z,-5.34
2023-02-06T06:44:46.665Z,-5.37
2023-02-06T06:47:22.425Z,-5.32
2023-02-06T06:50:01.454Z,-5.24
2023-02-06T06:52:38.995Z,-5.18
2023-02-06T06:55:16.102Z,-5.11
2023-02-06T06:57:48.159Z,-5.07
2023-02-06T07:00:24.063Z,-4.98
2023-02-06T07:03:02.609Z,-4.88
2023-02-06T07:05:42.368Z,-4.80
2023-02-06T07:08:21.224Z,-4.80
2023-02-06T07:10:59.968Z,-4.79
2023-02-06T07:13:37.109Z,-4.71
2023-02-06T07:16:16.076Z,-4.64
2023-02-06T07:18:49.231Z,-4.63
2023-02-06T07:21:28.246Z,-4.62
2023-02-06T07:24:08.622Z,-4.52
2023-02-06T07:26:46.363Z,-4.39
2023-02-06T07:29:24.666Z,-4.29
2023-02-06T07:32:02.627Z,-4.16
2023-02-06T07:34:41.013Z,-3.94
2023-02-06T07:37:18.947Z,-3.82
2023-02-06T07:39:51.118Z,-3.64
2023-02-06T07:42:27.842Z,-3.70
2023-02-06T07:45:05.382Z,-3.81
2023-02-06T07:47:44.315Z,-3.74
2023-02-06T07:50:22.907Z,-3.74
2023-02-06T07:53:00.640Z,-3.73
2023-02-06T07:55:39.679Z,-3.58
2023-02-06T07:58:17.400Z,-3.62
2023-02-06T08:00:55.750Z,-3.68
2023-02-06T08:03:35.762Z,-3.51
2023-02-06T08:06:18.109Z,-3.30
2023-02-06T08:09:00.289Z,-3.30
2023-02-06T08:11:38.121Z,-3.22
2023-02-06T08:14:08.795Z,-3.26
2023-02-06T08:16:46.821Z,-3.30
2023-02-06T08:19:24.542Z,-3.19
2023-02-06T08:22:02.282Z,-3.09
2023-02-06T08:24:39.752Z,-2.94
2023-02-06T08:27:10.414Z,-2.97
2023-02-06T08:29:46.077Z,-2.88
2023-02-06T08:32:24.403Z,-2.74
2023-02-06T08:35:02.470Z,-2.88
2023-02-06T08:37:41.466Z,-2.70
2023-02-06T08:40:19.412Z,-2.49
2023-02-06T08:42:56.942Z,-2.25
2023-02-06T08:45:34.853Z,-1.87
2023-02-06T08:48:13.522Z,-1.63
2023-02-06T08:50:51.112Z,-1.33
2023-02-06T08:53:31.330Z,-1.21
2023-02-06T08:56:16.838Z,-1.18
2023-02-06T08:58:54.910Z,-0.75
2023-02-06T09:01:35.724Z,-0.15
2023-02-06T09:04:15.845Z,0.09
2023-02-06T09:06:54.783Z,0.46
2023-02-06T09:09:34.204Z,0.82
2023-02-06T09:12:13.237Z,1.48
2023-02-06T09:14:50.827Z,2.14
2023-02-06T09:17:32.256Z,2.92
2023-02-06T09:20:11.616Z,2.91
2023-02-06T09:22:49.638Z,3.02
2023-02-06T09:25:27.732Z,3.58
2023-02-06T09:28:06.132Z,4.16
2023-02-06T09:30:45.529Z,4.00
2023-02-06T09:33:24.408Z,3.74
2023-02-06T09:36:17.107Z,3.84
2023-02-06T09:38:58.601Z,3.85
2023-02-06T09:41:48.246Z,3.66
2023-02-06T09:44:58.974Z,3.48
2023-02-06T09:47:48.514Z,3.22
2023-02-06T09:50:25.979Z,3.19
2023-02-06T09:53:08.939Z,3.50
2023-02-06T09:55:53.264Z,3.85
2023-02-06T09:58:51.126Z,3.60
2023-02-06T10:01:39.484Z,3.65
2023-02-06T10:04:39.881Z,3.53
2023-02-06T10:08:11.937Z,3.85
2023-02-06T10:11:02.874Z,4.36
2023-02-06T10:13:50.551Z,4.08
2023-02-06T10:16:55.467Z,3.68
2023-02-06T10:20:17.272Z,3.64
2023-02-06T10:23:39.262Z,4.20
2023-02-06T10:26:20.655Z,4.59
2023-02-06T10:29:05.241Z,4.81
2023-02-06T10:32:16.532Z,4.92
2023-02-06T10:35:10.203Z,4.75
2023-02-06T10:38:29.845Z,4.55
2023-02-06T10:41:42.301Z,4.29
2023-02-06T10:44:51.244Z,4.03
2023-02-06T10:47:56.580Z,4.33
2023-02-06T10:50:48.555Z,4.28
2023-02-06T10:53:37.277Z,4.12
2023-02-06T10:56:18.898Z,4.00
2023-02-06T10:59:21.866Z,4.09
2023-02-06T11:02:16.293Z,3.91
2023-02-06T11:05:07.634Z,3.69
2023-02-06T11:07:46.922Z,3.49
2023-02-06T11:10:27.880Z,3.38
2023-02-06T11:13:33.386Z,3.21
2023-02-06T11:16:17.419Z,3.07
2023-02-06T11:18:58.210Z,2.88
2023-02-06T11:21:59.531Z,2.71
2023-02-06T11:24:32.730Z,2.58
2023-02-06T11:27:24.217Z,2.55
2023-02-06T11:29:54.957Z,2.42
2023-02-06T11:32:55.755Z,2.34
2023-02-06T11:35:55.064Z,2.27
2023-02-06T11:38:32.718Z,2.15
2023-02-06T11:41:23.017Z,2.00
2023-02-06T11:44:07.052Z,1.88
2023-02-06T11:46:49.151Z,1.89
2023-02-06T11:49:31.037Z,1.74
2023-02-06T11:52:28.022Z,1.59
2023-02-06T11:55:09.265Z,1.45
2023-02-06T11:58:03.682Z,1.33
2023-02-06T12:00:39.102Z,1.21
2023-02-06T12:04:17.648Z,1.22
2023-02-06T12:07:23.103Z,1.23
2023-02-06T12:09:53.577Z,1.19
2023-02-06T12:12:45.374Z,1.05
2023-02-06T12:15:45.825Z,0.96
2023-02-06T12:18:36.144Z,0.96
2023-02-06T12:21:50.573Z,0.98
2023-02-06T12:24:50.117Z,0.99
2023-02-06T12:27:32.221Z,1.10
2023-02-06T12:30:35.749Z,1.14
2023-02-06T12:33:42.317Z,1.14
2023-02-06T12:36:37.765Z,1.15
2023-02-06T12:39:25.061Z,1.03
2023-02-06T12:42:41.437Z,1.18
2023-02-06T12:45:50.184Z,1.23
2023-02-06T12:48:59.840Z,1.24
2023-02-06T12:51:54.112Z,1.28
2023-02-06T12:54:49.353Z,1.23
2023-02-06T12:57:33.188Z,1.25
2023-02-06T13:00:46.406Z,1.21
2023-02-06T13:03:57.126Z,1.14
2023-02-06T13:06:55.974Z,1.01
2023-02-06T13:09:43.173Z,1.00
2023-02-06T13:12:29.651Z,1.04
2023-02-06T13:15:22.839Z,0.89
2023-02-06T13:17:58.849Z,0.96
2023-02-06T13:20:56.234Z,1.01
2023-02-06T13:23:28.299Z,1.01
2023-02-06T13:25:59.162Z,0.88
2023-02-06T13:28:48.338Z,0.89
2023-02-06T13:31:32.837Z,0.98
2023-02-06T13:34:18.020Z,1.14
2023-02-06T13:36:57.056Z,1.14
2023-02-06T13:39:37.816Z,1.20
2023-02-06T13:42:45.607Z,1.16
2023-02-06T13:45:47.594Z,1.00
2023-02-06T13:49:24.974Z,1.07
2023-02-06T13:53:03.801Z,1.13
2023-02-06T13:56:16.977Z,1.06
2023-02-06T13:59:01.050Z,0.94
2023-02-06T14:01:37.811Z,0.91
2023-02-06T14:04:24.944Z,0.95
2023-02-06T14:07:32.157Z,0.98
2023-02-06T14:10:36.639Z,0.89
2023-02-06T14:13:16.963Z,0.87
2023-02-06T14:16:19.005Z,0.79
2023-02-06T14:19:27.719Z,0.74
2023-02-06T14:22:28.653Z,0.70
2023-02-06T14:25:37.204Z,0.61
2023-02-06T14:28:58.136Z,0.60
2023-02-06T14:32:05.349Z,0.52
2023-02-06T14:35:18.068Z,0.49
2023-02-06T14:38:32.314Z,0.44
2023-02-06T14:41:12.077Z,0.38
2023-02-06T14:43:53.453Z,0.32
2023-02-06T14:46:33.091Z,0.22
2023-02-06T14:49:19.206Z,0.23
2023-02-06T14:51:56.737Z,0.24
2023-02-06T14:54:38.821Z,0.22
2023-02-06T14:57:28.507Z,0.16
2023-02-06T15:00:15.570Z,0.11
2023-02-06T15:03:08.381Z,0.08
2023-02-06T15:05:46.884Z,-0.06
2023-02-06T15:08:28.687Z,-0.22
2023-02-06T15:11:08.559Z,-0.29
2023-02-06T15:13:53.535Z,-0.33
2023-02-06T15:16:31.844Z,-0.34
2023-02-06T15:19:39.691Z,-0.40
2023-02-06T15:22:33.920Z,-0.45
2023-02-06T15:25:35.252Z,-0.54
2023-02-06T15:28:17.470Z,-0.61
2023-02-06T15:31:04.311Z,-0.69
2023-02-06T15:33:45.121Z,-0.70
2023-02-06T15:36:40.020Z,-0.70
2023-02-06T15:39:18.770Z,-0.68
2023-02-06T15:41:57.942Z,-0.57
2023-02-06T15:44:38.915Z,-0.53
2023-02-06T15:47:18.824Z,-0.67
2023-02-06T15:50:01.467Z,-0.77
2023-02-06T15:52:43.500Z,-0.86
2023-02-06T15:55:32.401Z,-0.98
2023-02-06T15:58:07.150Z,-1.09
2023-02-06T16:00:40.885Z,-1.15
2023-02-06T16:03:23.469Z,-1.19
2023-02-06T16:06:00.489Z,-1.24
2023-02-06T16:08:39.622Z,-1.31
2023-02-06T16:11:36.781Z,-1.33
2023-02-06T16:14:32.025Z,-1.41
2023-02-06T16:17:42.616Z,-1.36
2023-02-06T16:20:41.333Z,-1.30
2023-02-06T16:23:33.943Z,-1.35
2023-02-06T16:26:25.816Z,-1.40
2023-02-06T16:29:31.637Z,-1.43
2023-02-06T16:32:22.705Z,-1.51
2023-02-06T16:35:01.776Z,-1.61
2023-02-06T16:37:39.644Z,-1.72
2023-02-06T16:40:18.832Z,-1.70
2023-02-06T16:42:56.552Z,-1.65
2023-02-06T16:45:34.306Z,-1.61
2023-02-06T16:48:12.443Z,-1.57
2023-02-06T16:50:44.858Z,-1.63
2023-02-06T16:53:26.597Z,-1.70
2023-02-06T16:56:03.211Z,-1.72
2023-02-06T16:58:42.037Z,-1.79
2023-02-06T17:01:25.969Z,-1.84
2023-02-06T17:04:01.726Z,-1.92
2023-02-06T17:06:40.411Z,-1.97
2023-02-06T17:09:21.519Z,-2.02
2023-02-06T17:11:59.442Z,-1.97
2023-02-06T17:14:38.852Z,-1.94
2023-02-06T17:17:21.416Z,-1.89
2023-02-06T17:20:00.523Z,-1.93
2023-02-06T17:22:39.014Z,-1.92
2023-02-06T17:25:17.249Z,-1.95
2023-02-06T17:27:49.771Z,-1.97
2023-02-06T17:30:29.738Z,-2.07
2023-02-06T17:33:10.649Z,-2.11
2023-02-06T17:35:50.236Z,-2.17
2023-02-06T17:38:27.721Z,-2.21
2023-02-06T17:41:06.018Z,-2.18
2023-02-06T17:43:45.641Z,-2.12
2023-02-06T17:46:23.702Z,-2.13
2023-02-06T17:49:03.970Z,-2.13
2023-02-06T17:51:44.386Z,-2.18
2023-02-06T17:54:22.828Z,-2.26
2023-02-06T17:57:00.721Z,-2.33
2023-02-06T17:59:39.002Z,-2.38
2023-02-06T18:02:19.277Z,-2.42
2023-02-06T18:04:57.537Z,-2.50
2023-02-06T18:07:32.103Z,-2.52
2023-02-06T18:10:05.120Z,-2.48
2023-02-06T18:12:43.862Z,-2.49
2023-02-06T18:15:22.901Z,-2.47
2023-02-06T18:18:02.156Z,-2.51
2023-02-06T18:20:41.458Z,-2.51
2023-02-06T18:23:21.160Z,-2.53
2023-02-06T18:26:02.867Z,-2.58
2023-02-06T18:28:40.994Z,-2.64
2023-02-06T18:31:30.214Z,-2.66
2023-02-06T18:34:08.569Z,-2.68
2023-02-06T18:36:45.039Z,-2.65
2023-02-06T18:39:23.468Z,-2.63
2023-02-06T18:42:20.135Z,-2.59
2023-02-06T18:44:58.343Z,-2.56
2023-02-06T18:47:32.042Z,-2.58
2023-02-06T18:50:05.942Z,-2.57
2023-02-06T18:52:44.219Z,-2.64
2023-02-06T18:55:22.094Z,-2.68
2023-02-06T18:57:59.765Z,-2.72
2023-02-06T19:00:39.226Z,-2.79
2023-02-06T19:03:17.010Z,-2.76
2023-02-06T19:05:55.634Z,-2.73
2023-02-06T19:08:33.548Z,-2.71
2023-02-06T19:11:12.478Z,-2.70
2023-02-06T19:13:44.534Z,-2.84
2023-02-06T19:16:23.559Z,-2.70
2023-02-06T19:19:01.838Z,-2.74
2023-02-06T19:21:39.986Z,-2.79
2023-02-06T19:24:20.730Z,-2.82
2023-02-06T19:26:59.222Z,-2.85
2023-02-06T19:29:35.477Z,-2.87
2023-02-06T19:32:12.304Z,-2.82
2023-02-06T19:34:47.159Z,-2.77
2023-02-06T19:37:25.598Z,-2.74
2023-02-06T19:40:03.281Z,-2.79
2023-02-06T19:42:40.906Z,-2.78
2023-02-06T19:45:18.580Z,-2.75
2023-02-06T19:47:57.713Z,-2.74
2023-02-06T19:50:36.327Z,-2.77
2023-02-06T19:53:16.780Z,-2.79
2023-02-06T19:55:55.764Z,-2.81
2023-02-06T19:58:33.704Z,-2.83
2023-02-06T20:01:19.978Z,-2.84
2023-02-06T20:03:57.829Z,-2.81
2023-02-06T20:06:36.866Z,-2.77
2023-02-06T20:09:16.485Z,-2.74
2023-02-06T20:11:54.572Z,-2.77
2023-02-06T20:14:32.134Z,-2.77
2023-02-06T20:17:10.797Z,-2.75
2023-02-06T20:19:41.264Z,-2.77
2023-02-06T20:22:22.523Z,-2.82
2023-02-06T20:25:00.592Z,-2.85
2023-02-06T20:27:31.261Z,-2.90
2023-02-06T20:30:04.279Z,-2.89
2023-02-06T20:32:42.776Z,-2.87
2023-02-06T20:35:21.211Z,-2.85
2023-02-06T20:37:51.413Z,-2.86
2023-02-06T20:40:29.712Z,-2.86
2023-02-06T20:43:07.634Z,-2.91
2023-02-06T20:45:46.649Z,-2.96
2023-02-06T20:48:24.742Z,-3.01
2023-02-06T20:51:07.711Z,-3.04
2023-02-06T20:53:46.500Z,-3.08
2023-02-06T20:56:24.945Z,-3.11
2023-02-06T20:59:06.380Z,-3.04
2023-02-06T21:01:45.164Z,-3.00
2023-02-06T21:04:25.680Z,-2.97
2023-02-06T21:07:04.763Z,-2.99
2023-02-06T21:09:43.189Z,-2.99
2023-02-06T21:12:14.335Z,-3.01
2023-02-06T21:14:49.524Z,-3.02
2023-02-06T21:17:27.497Z,-3.07
2023-02-06T21:20:06.068Z,-3.14
2023-02-06T21:22:43.955Z,-3.20
2023-02-06T21:25:22.118Z,-3.27
2023-02-06T21:27:53.194Z,-3.30
2023-02-06T21:30:32.907Z,-3.26
2023-02-06T21:33:11.635Z,-3.21
2023-02-06T21:35:52.098Z,-3.23
2023-02-06T21:38:32.515Z,-3.27
2023-02-06T21:41:21.812Z,-3.28
2023-02-06T21:43:59.223Z,-3.26
2023-02-06T21:46:36.533Z,-3.30
2023-02-06T21:49:14.660Z,-3.39
2023-02-06T21:51:51.970Z,-3.45
2023-02-06T21:54:29.780Z,-3.47
2023-02-06T21:57:08.453Z,-3.52
2023-02-06T21:59:46.302Z,-3.58
2023-02-06T22:02:16.646Z,-3.62
2023-02-06T22:04:51.485Z,-3.57
2023-02-06T22:07:29.518Z,-3.46
2023-02-06T22:10:10.757Z,-3.40
2023-02-06T22:12:50.736Z,-3.35
2023-02-06T22:15:28.695Z,-3.33
2023-02-06T22:18:06.412Z,-3.37
2023-02-06T22:20:43.536Z,-3.35
2023-02-06T22:23:21.351Z,-3.36
2023-02-06T22:25:58.941Z,-3.40
2023-02-06T22:28:37.077Z,-3.40
2023-02-06T22:31:16.930Z,-3.29
2023-02-06T22:33:54.735Z,-3.22
2023-02-06T22:36:34.126Z,-3.16
2023-02-06T22:39:14.398Z,-3.16
2023-02-06T22:41:52.892Z,-3.12
2023-02-06T22:44:30.327Z,-3.14
2023-02-06T22:47:07.109Z,-3.17
2023-02-06T22:49:45.143Z,-3.15
2023-02-06T22:52:36.144Z,-2.98
2023-02-06T22:55:15.044Z,-2.88
2023-02-06T22:57:52.268Z,-2.92
2023-02-06T23:00:30.181Z,-2.96
2023-02-06T23:03:00.369Z,-2.93
2023-02-06T23:05:36.545Z,-2.89
2023-02-06T23:08:13.015Z,-2.92
2023-02-06T23:10:52.179Z,-2.99
2023-02-06T23:13:30.064Z,-3.00
2023-02-06T23:16:08.974Z,-3.02
2023-02-06T23:18:47.054Z,-2.93
2023-02-06T23:21:26.024Z,-2.89
2023-02-06T23:24:03.898Z,-2.85
2023-02-06T23:26:44.856Z,-2.80
2023-02-06T23:29:24.228Z,-2.79
2023-02-06T23:32:02.998Z,-2.83
2023-02-06T23:34:41.223Z,-2.85
2023-02-06T23:37:18.746Z,-2.92
2023-02-06T23:39:56.981Z,-2.90
2023-02-06T23:42:29.713Z,-2.94
2023-02-06T23:45:07.887Z,-2.91
2023-02-06T23:47:45.729Z,-2.95
2023-02-06T23:50:23.169Z,-3.00
2023-02-06T23:52:54.026Z,-2.98
2023-02-06T23:55:30.861Z,-3.03
2023-02-06T23:58:08.679Z,-3.08
